sensor_id;sensor_type;location;lat;lon;timestamp;P1;durP1;ratioP1;P2;durP2;ratioP2
74168;SDS011;62523;53.336;83.690;2023-07-31T00:00:57;8.70;;;7.40;;
74168;SDS011;62523;53.336;83.690;2023-07-31T00:05:59;19.87;;;10.47;;
74168;SDS011;62523;53.336;83.690;2023-07-31T00:11:01;23.47;;;10.73;;
74168;SDS011;62523;53.336;83.690;2023-07-31T00:16:02;12.85;;;11.43;;
74168;SDS011;62523;53.336;83.690;2023-07-31T00:21:04;22.45;;;13.27;;
74168;SDS011;62523;53.336;83.690;2023-07-31T00:26:06;29.40;;;13.47;;
74168;SDS011;62523;53.336;83.690;2023-07-31T00:31:07;14.43;;;10.70;;
74168;SDS011;62523;53.336;83.690;2023-07-31T00:36:09;20.65;;;11.80;;
74168;SDS011;62523;53.336;83.690;2023-07-31T00:41:11;19.13;;;11.65;;
74168;SDS011;62523;53.336;83.690;2023-07-31T00:46:12;10.52;;;8.82;;
74168;SDS011;62523;53.336;83.690;2023-07-31T00:51:15;16.75;;;8.43;;
74168;SDS011;62523;53.336;83.690;2023-07-31T00:56:18;12.35;;;8.73;;
74168;SDS011;62523;53.336;83.690;2023-07-31T01:01:20;15.10;;;9.00;;
74168;SDS011;62523;53.336;83.690;2023-07-31T01:16:25;13.23;;;9.20;;
74168;SDS011;62523;53.336;83.690;2023-07-31T01:27:09;21.08;;;11.55;;
74168;SDS011;62523;53.336;83.690;2023-07-31T01:32:16;17.70;;;12.90;;
74168;SDS011;62523;53.336;83.690;2023-07-31T01:37:19;16.00;;;11.98;;
74168;SDS011;62523;53.336;83.690;2023-07-31T01:42:21;27.60;;;12.85;;
74168;SDS011;62523;53.336;83.690;2023-07-31T01:47:23;16.42;;;12.30;;
74168;SDS011;62523;53.336;83.690;2023-07-31T01:52:24;25.55;;;13.85;;
74168;SDS011;62523;53.336;83.690;2023-07-31T01:57:27;22.65;;;13.75;;
74168;SDS011;62523;53.336;83.690;2023-07-31T02:02:28;49.75;;;18.52;;
74168;SDS011;62523;53.336;83.690;2023-07-31T02:07:30;44.53;;;15.73;;
74168;SDS011;62523;53.336;83.690;2023-07-31T02:12:32;26.50;;;14.93;;
74168;SDS011;62523;53.336;83.690;2023-07-31T02:17:35;36.47;;;13.93;;
74168;SDS011;62523;53.336;83.690;2023-07-31T02:22:37;17.23;;;10.50;;
74168;SDS011;62523;53.336;83.690;2023-07-31T02:27:38;20.10;;;13.75;;
74168;SDS011;62523;53.336;83.690;2023-07-31T02:32:40;14.75;;;9.30;;
74168;SDS011;62523;53.336;83.690;2023-07-31T02:37:42;11.85;;;8.07;;
74168;SDS011;62523;53.336;83.690;2023-07-31T02:42:44;8.38;;;5.65;;
74168;SDS011;62523;53.336;83.690;2023-07-31T02:47:46;6.82;;;5.80;;
74168;SDS011;62523;53.336;83.690;2023-07-31T02:52:56;7.64;;;4.75;;
74168;SDS011;62523;53.336;83.690;2023-07-31T02:57:58;6.68;;;4.80;;
74168;SDS011;62523;53.336;83.690;2023-07-31T03:03:02;9.93;;;4.83;;
74168;SDS011;62523;53.336;83.690;2023-07-31T03:08:04;6.55;;;4.38;;
74168;SDS011;62523;53.336;83.690;2023-07-31T03:13:06;5.13;;;4.33;;
74168;SDS011;62523;53.336;83.690;2023-07-31T03:18:08;5.18;;;4.60;;
74168;SDS011;62523;53.336;83.690;2023-07-31T03:23:10;5.95;;;3.85;;
74168;SDS011;62523;53.336;83.690;2023-07-31T03:28:11;10.68;;;3.83;;
74168;SDS011;62523;53.336;83.690;2023-07-31T03:33:13;3.43;;;3.13;;
74168;SDS011;62523;53.336;83.690;2023-07-31T03:38:15;4.75;;;4.10;;
74168;SDS011;62523;53.336;83.690;2023-07-31T03:43:17;4.95;;;4.40;;
74168;SDS011;62523;53.336;83.690;2023-07-31T03:48:18;4.77;;;4.00;;
74168;SDS011;62523;53.336;83.690;2023-07-31T03:53:21;23.10;;;5.10;;
74168;SDS011;62523;53.336;83.690;2023-07-31T03:58:22;6.80;;;3.88;;
74168;SDS011;62523;53.336;83.690;2023-07-31T04:03:24;4.63;;;3.97;;
74168;SDS011;62523;53.336;83.690;2023-07-31T04:08:25;4.30;;;3.90;;
74168;SDS011;62523;53.336;83.690;2023-07-31T04:13:29;7.65;;;4.78;;
74168;SDS011;62523;53.336;83.690;2023-07-31T04:18:31;5.00;;;4.17;;
74168;SDS011;62523;53.336;83.690;2023-07-31T04:23:33;7.20;;;4.15;;
74168;SDS011;62523;53.336;83.690;2023-07-31T04:28:34;14.90;;;3.53;;
74168;SDS011;62523;53.336;83.690;2023-07-31T04:33:36;8.02;;;4.03;;
74168;SDS011;62523;53.336;83.690;2023-07-31T04:38:38;5.10;;;4.47;;
74168;SDS011;62523;53.336;83.690;2023-07-31T04:43:40;5.47;;;4.47;;
74168;SDS011;62523;53.336;83.690;2023-07-31T04:48:42;4.88;;;3.30;;
74168;SDS011;62523;53.336;83.690;2023-07-31T04:53:44;3.53;;;3.22;;
74168;SDS011;62523;53.336;83.690;2023-07-31T04:58:46;5.15;;;4.15;;
74168;SDS011;62523;53.336;83.690;2023-07-31T05:03:48;8.82;;;4.75;;
74168;SDS011;62523;53.336;83.690;2023-07-31T05:08:50;4.50;;;4.10;;
74168;SDS011;62523;53.336;83.690;2023-07-31T05:13:52;7.20;;;4.00;;
74168;SDS011;62523;53.336;83.690;2023-07-31T05:18:54;4.70;;;4.30;;
74168;SDS011;62523;53.336;83.690;2023-07-31T05:23:56;5.38;;;3.88;;
74168;SDS011;62523;53.336;83.690;2023-07-31T05:28:57;5.75;;;3.33;;
74168;SDS011;62523;53.336;83.690;2023-07-31T05:33:59;12.82;;;4.85;;
74168;SDS011;62523;53.336;83.690;2023-07-31T05:39:00;8.38;;;4.50;;
74168;SDS011;62523;53.336;83.690;2023-07-31T05:44:07;9.20;;;4.40;;
74168;SDS011;62523;53.336;83.690;2023-07-31T05:49:09;9.23;;;4.50;;
74168;SDS011;62523;53.336;83.690;2023-07-31T05:54:11;15.05;;;4.82;;
74168;SDS011;62523;53.336;83.690;2023-07-31T05:59:12;7.03;;;3.63;;
74168;SDS011;62523;53.336;83.690;2023-07-31T06:04:14;8.88;;;3.95;;
74168;SDS011;62523;53.336;83.690;2023-07-31T06:09:16;6.37;;;4.87;;
74168;SDS011;62523;53.336;83.690;2023-07-31T06:14:18;11.85;;;4.53;;
74168;SDS011;62523;53.336;83.690;2023-07-31T06:19:20;9.80;;;5.55;;
74168;SDS011;62523;53.336;83.690;2023-07-31T06:24:21;13.68;;;5.22;;
74168;SDS011;62523;53.336;83.690;2023-07-31T06:29:24;9.13;;;4.20;;
74168;SDS011;62523;53.336;83.690;2023-07-31T06:34:25;9.25;;;4.65;;
74168;SDS011;62523;53.336;83.690;2023-07-31T06:39:27;5.03;;;4.35;;
74168;SDS011;62523;53.336;83.690;2023-07-31T06:44:28;9.60;;;5.40;;
74168;SDS011;62523;53.336;83.690;2023-07-31T06:49:30;10.30;;;4.45;;
74168;SDS011;62523;53.336;83.690;2023-07-31T06:54:32;4.93;;;4.13;;
74168;SDS011;62523;53.336;83.690;2023-07-31T06:59:34;20.48;;;6.93;;
74168;SDS011;62523;53.336;83.690;2023-07-31T07:04:36;12.57;;;6.28;;
74168;SDS011;62523;53.336;83.690;2023-07-31T07:09:40;17.37;;;6.63;;
74168;SDS011;62523;53.336;83.690;2023-07-31T07:14:42;13.55;;;7.20;;
74168;SDS011;62523;53.336;83.690;2023-07-31T07:19:44;12.43;;;7.35;;
74168;SDS011;62523;53.336;83.690;2023-07-31T07:24:49;8.87;;;6.47;;
74168;SDS011;62523;53.336;83.690;2023-07-31T07:29:51;25.83;;;7.40;;
74168;SDS011;62523;53.336;83.690;2023-07-31T07:34:54;13.60;;;7.07;;
74168;SDS011;62523;53.336;83.690;2023-07-31T07:39:57;9.40;;;5.68;;
74168;SDS011;62523;53.336;83.690;2023-07-31T07:44:59;16.30;;;6.30;;
74168;SDS011;62523;53.336;83.690;2023-07-31T07:50:01;18.77;;;5.60;;
74168;SDS011;62523;53.336;83.690;2023-07-31T07:55:03;6.72;;;5.10;;
74168;SDS011;62523;53.336;83.690;2023-07-31T08:00:05;11.73;;;6.00;;
74168;SDS011;62523;53.336;83.690;2023-07-31T08:05:15;6.38;;;5.78;;
74168;SDS011;62523;53.336;83.690;2023-07-31T08:10:18;6.10;;;5.43;;
74168;SDS011;62523;53.336;83.690;2023-07-31T08:15:20;8.23;;;5.55;;
74168;SDS011;62523;53.336;83.690;2023-07-31T08:20:21;13.00;;;6.17;;
74168;SDS011;62523;53.336;83.690;2023-07-31T08:25:23;10.05;;;5.65;;
74168;SDS011;62523;53.336;83.690;2023-07-31T08:30:25;19.88;;;6.68;;
74168;SDS011;62523;53.336;83.690;2023-07-31T08:35:28;27.27;;;6.57;;
74168;SDS011;62523;53.336;83.690;2023-07-31T08:40:37;20.95;;;8.07;;
74168;SDS011;62523;53.336;83.690;2023-07-31T08:45:41;8.63;;;6.50;;
74168;SDS011;62523;53.336;83.690;2023-07-31T08:50:43;8.52;;;5.85;;
74168;SDS011;62523;53.336;83.690;2023-07-31T08:55:44;12.35;;;6.97;;
74168;SDS011;62523;53.336;83.690;2023-07-31T09:00:47;12.13;;;7.60;;
74168;SDS011;62523;53.336;83.690;2023-07-31T09:05:49;22.83;;;6.97;;
74168;SDS011;62523;53.336;83.690;2023-07-31T09:10:51;10.65;;;7.18;;
74168;SDS011;62523;53.336;83.690;2023-07-31T09:15:53;30.13;;;7.13;;
74168;SDS011;62523;53.336;83.690;2023-07-31T09:21:04;7.45;;;5.80;;
74168;SDS011;62523;53.336;83.690;2023-07-31T09:26:07;11.68;;;7.20;;
74168;SDS011;62523;53.336;83.690;2023-07-31T09:31:08;8.68;;;6.80;;
74168;SDS011;62523;53.336;83.690;2023-07-31T09:36:10;8.25;;;5.85;;
74168;SDS011;62523;53.336;83.690;2023-07-31T09:41:11;16.23;;;7.50;;
74168;SDS011;62523;53.336;83.690;2023-07-31T09:46:14;12.18;;;8.07;;
74168;SDS011;62523;53.336;83.690;2023-07-31T09:51:16;20.77;;;6.93;;
74168;SDS011;62523;53.336;83.690;2023-07-31T09:56:18;13.57;;;6.70;;
74168;SDS011;62523;53.336;83.690;2023-07-31T10:01:24;11.30;;;6.47;;
74168;SDS011;62523;53.336;83.690;2023-07-31T10:06:26;10.43;;;6.90;;
74168;SDS011;62523;53.336;83.690;2023-07-31T10:11:28;13.45;;;5.65;;
74168;SDS011;62523;53.336;83.690;2023-07-31T10:16:32;6.88;;;5.07;;
74168;SDS011;62523;53.336;83.690;2023-07-31T10:21:35;11.98;;;5.45;;
74168;SDS011;62523;53.336;83.690;2023-07-31T10:26:38;6.27;;;5.57;;
74168;SDS011;62523;53.336;83.690;2023-07-31T10:31:42;5.97;;;5.18;;
74168;SDS011;62523;53.336;83.690;2023-07-31T10:36:44;16.17;;;6.00;;
74168;SDS011;62523;53.336;83.690;2023-07-31T10:41:46;8.13;;;6.07;;
74168;SDS011;62523;53.336;83.690;2023-07-31T10:46:47;8.67;;;4.43;;
74168;SDS011;62523;53.336;83.690;2023-07-31T10:51:49;7.50;;;5.93;;
74168;SDS011;62523;53.336;83.690;2023-07-31T10:56:50;13.27;;;5.93;;
74168;SDS011;62523;53.336;83.690;2023-07-31T11:01:54;19.40;;;5.80;;
74168;SDS011;62523;53.336;83.690;2023-07-31T11:07:03;8.27;;;6.68;;
74168;SDS011;62523;53.336;83.690;2023-07-31T11:12:09;12.30;;;6.78;;
74168;SDS011;62523;53.336;83.690;2023-07-31T11:17:12;7.55;;;6.60;;
74168;SDS011;62523;53.336;83.690;2023-07-31T11:22:15;9.75;;;6.53;;
74168;SDS011;62523;53.336;83.690;2023-07-31T11:27:17;6.35;;;5.15;;
74168;SDS011;62523;53.336;83.690;2023-07-31T11:32:19;6.90;;;5.35;;
74168;SDS011;62523;53.336;83.690;2023-07-31T11:37:20;15.13;;;6.70;;
74168;SDS011;62523;53.336;83.690;2023-07-31T11:42:23;5.50;;;5.00;;
74168;SDS011;62523;53.336;83.690;2023-07-31T11:47:25;21.35;;;7.30;;
74168;SDS011;62523;53.336;83.690;2023-07-31T11:52:28;13.83;;;7.93;;
74168;SDS011;62523;53.336;83.690;2023-07-31T11:57:35;8.82;;;7.75;;
74168;SDS011;62523;53.336;83.690;2023-07-31T12:02:41;6.53;;;5.68;;
74168;SDS011;62523;53.336;83.690;2023-07-31T12:12:57;13.61;;;9.57;;
74168;SDS011;62523;53.336;83.690;2023-07-31T12:18:00;15.99;;;8.80;;
74168;SDS011;62523;53.336;83.690;2023-07-31T12:23:04;9.32;;;7.03;;
74168;SDS011;62523;53.336;83.690;2023-07-31T12:28:06;10.93;;;5.93;;
74168;SDS011;62523;53.336;83.690;2023-07-31T12:33:14;17.53;;;8.87;;
74168;SDS011;62523;53.336;83.690;2023-07-31T12:38:16;12.07;;;7.60;;
74168;SDS011;62523;53.336;83.690;2023-07-31T12:43:18;12.03;;;7.80;;
74168;SDS011;62523;53.336;83.690;2023-07-31T12:48:20;13.77;;;8.30;;
74168;SDS011;62523;53.336;83.690;2023-07-31T12:53:21;15.65;;;8.68;;
74168;SDS011;62523;53.336;83.690;2023-07-31T12:58:23;19.07;;;10.83;;
74168;SDS011;62523;53.336;83.690;2023-07-31T13:03:25;13.67;;;10.47;;
74168;SDS011;62523;53.336;83.690;2023-07-31T13:08:28;9.23;;;8.00;;
74168;SDS011;62523;53.336;83.690;2023-07-31T13:13:34;15.52;;;9.80;;
74168;SDS011;62523;53.336;83.690;2023-07-31T13:18:36;13.68;;;9.07;;
74168;SDS011;62523;53.336;83.690;2023-07-31T13:23:41;14.02;;;8.93;;
74168;SDS011;62523;53.336;83.690;2023-07-31T13:28:44;12.55;;;8.77;;
74168;SDS011;62523;53.336;83.690;2023-07-31T13:33:47;18.98;;;9.82;;
74168;SDS011;62523;53.336;83.690;2023-07-31T13:38:54;15.15;;;7.30;;
74168;SDS011;62523;53.336;83.690;2023-07-31T13:43:55;15.13;;;6.45;;
74168;SDS011;62523;53.336;83.690;2023-07-31T13:48:57;9.93;;;6.78;;
74168;SDS011;62523;53.336;83.690;2023-07-31T13:54:03;9.30;;;7.60;;
74168;SDS011;62523;53.336;83.690;2023-07-31T13:59:14;12.75;;;8.70;;
74168;SDS011;62523;53.336;83.690;2023-07-31T14:04:18;11.48;;;7.20;;
74168;SDS011;62523;53.336;83.690;2023-07-31T14:09:20;16.75;;;9.52;;
74168;SDS011;62523;53.336;83.690;2023-07-31T14:14:25;17.23;;;9.70;;
74168;SDS011;62523;53.336;83.690;2023-07-31T14:19:27;20.33;;;9.52;;
74168;SDS011;62523;53.336;83.690;2023-07-31T14:24:30;16.02;;;8.43;;
74168;SDS011;62523;53.336;83.690;2023-07-31T14:29:35;34.25;;;10.57;;
74168;SDS011;62523;53.336;83.690;2023-07-31T14:34:37;30.42;;;14.65;;
74168;SDS011;62523;53.336;83.690;2023-07-31T14:39:39;19.48;;;11.13;;
74168;SDS011;62523;53.336;83.690;2023-07-31T14:44:41;21.67;;;12.45;;
74168;SDS011;62523;53.336;83.690;2023-07-31T14:49:45;21.30;;;13.23;;
74168;SDS011;62523;53.336;83.690;2023-07-31T14:54:49;32.50;;;16.73;;
74168;SDS011;62523;53.336;83.690;2023-07-31T14:59:59;13.95;;;12.18;;
74168;SDS011;62523;53.336;83.690;2023-07-31T15:05:01;25.80;;;12.27;;
74168;SDS011;62523;53.336;83.690;2023-07-31T15:10:05;20.70;;;11.95;;
74168;SDS011;62523;53.336;83.690;2023-07-31T15:15:13;17.00;;;11.00;;
74168;SDS011;62523;53.336;83.690;2023-07-31T15:20:19;26.40;;;13.68;;
74168;SDS011;62523;53.336;83.690;2023-07-31T15:25:22;18.63;;;12.43;;
74168;SDS011;62523;53.336;83.690;2023-07-31T15:30:24;22.13;;;12.45;;
74168;SDS011;62523;53.336;83.690;2023-07-31T15:35:29;26.23;;;11.93;;
74168;SDS011;62523;53.336;83.690;2023-07-31T15:40:34;14.80;;;12.43;;
74168;SDS011;62523;53.336;83.690;2023-07-31T15:45:38;25.48;;;13.75;;
74168;SDS011;62523;53.336;83.690;2023-07-31T15:50:41;16.05;;;12.43;;
74168;SDS011;62523;53.336;83.690;2023-07-31T15:55:44;21.15;;;11.75;;
74168;SDS011;62523;53.336;83.690;2023-07-31T16:00:47;19.60;;;11.40;;
74168;SDS011;62523;53.336;83.690;2023-07-31T16:05:49;26.77;;;13.10;;
74168;SDS011;62523;53.336;83.690;2023-07-31T16:10:51;30.73;;;11.75;;
74168;SDS011;62523;53.336;83.690;2023-07-31T16:15:52;17.52;;;10.73;;
74168;SDS011;62523;53.336;83.690;2023-07-31T16:20:54;19.63;;;11.10;;
74168;SDS011;62523;53.336;83.690;2023-07-31T16:25:56;20.63;;;12.45;;
74168;SDS011;62523;53.336;83.690;2023-07-31T16:30:58;20.95;;;12.65;;
74168;SDS011;62523;53.336;83.690;2023-07-31T16:35:59;22.70;;;13.93;;
74168;SDS011;62523;53.336;83.690;2023-07-31T16:41:01;22.92;;;13.50;;
74168;SDS011;62523;53.336;83.690;2023-07-31T16:46:03;21.63;;;15.43;;
74168;SDS011;62523;53.336;83.690;2023-07-31T16:51:04;25.73;;;16.02;;
74168;SDS011;62523;53.336;83.690;2023-07-31T16:56:06;40.35;;;19.85;;
74168;SDS011;62523;53.336;83.690;2023-07-31T17:01:07;38.50;;;16.00;;
74168;SDS011;62523;53.336;83.690;2023-07-31T17:06:09;32.35;;;16.77;;
74168;SDS011;62523;53.336;83.690;2023-07-31T17:11:10;27.17;;;15.73;;
74168;SDS011;62523;53.336;83.690;2023-07-31T17:16:12;49.10;;;20.63;;
74168;SDS011;62523;53.336;83.690;2023-07-31T17:21:13;35.15;;;16.08;;
74168;SDS011;62523;53.336;83.690;2023-07-31T17:26:15;37.35;;;23.23;;
74168;SDS011;62523;53.336;83.690;2023-07-31T17:31:16;26.30;;;18.73;;
74168;SDS011;62523;53.336;83.690;2023-07-31T17:36:18;26.90;;;17.38;;
74168;SDS011;62523;53.336;83.690;2023-07-31T17:41:20;29.77;;;17.27;;
74168;SDS011;62523;53.336;83.690;2023-07-31T17:46:21;35.45;;;21.05;;
74168;SDS011;62523;53.336;83.690;2023-07-31T17:51:23;30.83;;;19.25;;
74168;SDS011;62523;53.336;83.690;2023-07-31T17:56:24;32.75;;;17.95;;
74168;SDS011;62523;53.336;83.690;2023-07-31T18:01:27;42.17;;;18.87;;
74168;SDS011;62523;53.336;83.690;2023-07-31T18:06:28;28.25;;;18.73;;
74168;SDS011;62523;53.336;83.690;2023-07-31T18:11:35;34.60;;;19.75;;
74168;SDS011;62523;53.336;83.690;2023-07-31T18:16:36;43.70;;;19.85;;
74168;SDS011;62523;53.336;83.690;2023-07-31T18:21:38;33.95;;;18.55;;
74168;SDS011;62523;53.336;83.690;2023-07-31T18:26:39;35.08;;;18.90;;
74168;SDS011;62523;53.336;83.690;2023-07-31T18:31:41;36.90;;;20.33;;
74168;SDS011;62523;53.336;83.690;2023-07-31T18:36:42;32.80;;;20.50;;
74168;SDS011;62523;53.336;83.690;2023-07-31T18:41:44;45.97;;;20.67;;
74168;SDS011;62523;53.336;83.690;2023-07-31T18:46:46;30.48;;;18.60;;
74168;SDS011;62523;53.336;83.690;2023-07-31T18:51:47;31.35;;;18.20;;
74168;SDS011;62523;53.336;83.690;2023-07-31T18:56:49;37.08;;;18.77;;
74168;SDS011;62523;53.336;83.690;2023-07-31T19:01:51;31.73;;;18.77;;
74168;SDS011;62523;53.336;83.690;2023-07-31T19:06:52;35.45;;;19.10;;
74168;SDS011;62523;53.336;83.690;2023-07-31T19:11:54;25.58;;;16.40;;
74168;SDS011;62523;53.336;83.690;2023-07-31T19:16:55;38.72;;;17.95;;
74168;SDS011;62523;53.336;83.690;2023-07-31T19:21:57;45.70;;;18.70;;
74168;SDS011;62523;53.336;83.690;2023-07-31T19:26:59;35.10;;;16.40;;
74168;SDS011;62523;53.336;83.690;2023-07-31T19:32:01;33.40;;;17.70;;
74168;SDS011;62523;53.336;83.690;2023-07-31T19:37:02;24.52;;;15.15;;
74168;SDS011;62523;53.336;83.690;2023-07-31T19:42:04;31.90;;;18.35;;
74168;SDS011;62523;53.336;83.690;2023-07-31T19:47:05;35.83;;;17.38;;
74168;SDS011;62523;53.336;83.690;2023-07-31T19:52:07;60.42;;;19.88;;
74168;SDS011;62523;53.336;83.690;2023-07-31T19:57:09;41.63;;;18.63;;
74168;SDS011;62523;53.336;83.690;2023-07-31T20:02:10;32.70;;;17.55;;
74168;SDS011;62523;53.336;83.690;2023-07-31T20:07:12;36.20;;;16.95;;
74168;SDS011;62523;53.336;83.690;2023-07-31T20:12:14;33.70;;;16.63;;
74168;SDS011;62523;53.336;83.690;2023-07-31T20:17:15;29.23;;;18.20;;
74168;SDS011;62523;53.336;83.690;2023-07-31T20:22:17;42.55;;;20.67;;
74168;SDS011;62523;53.336;83.690;2023-07-31T20:27:20;40.75;;;18.88;;
74168;SDS011;62523;53.336;83.690;2023-07-31T20:32:23;61.17;;;19.20;;
74168;SDS011;62523;53.336;83.690;2023-07-31T20:37:25;25.23;;;17.63;;
74168;SDS011;62523;53.336;83.690;2023-07-31T20:42:27;26.20;;;17.77;;
74168;SDS011;62523;53.336;83.690;2023-07-31T20:47:29;28.13;;;17.55;;
74168;SDS011;62523;53.336;83.690;2023-07-31T20:52:30;46.58;;;20.02;;
74168;SDS011;62523;53.336;83.690;2023-07-31T20:57:32;31.73;;;17.80;;
74168;SDS011;62523;53.336;83.690;2023-07-31T21:02:33;39.80;;;18.95;;
74168;SDS011;62523;53.336;83.690;2023-07-31T21:07:35;29.17;;;18.90;;
74168;SDS011;62523;53.336;83.690;2023-07-31T21:12:38;35.28;;;16.73;;
74168;SDS011;62523;53.336;83.690;2023-07-31T21:17:42;52.60;;;20.33;;
74168;SDS011;62523;53.336;83.690;2023-07-31T21:22:44;40.38;;;18.00;;
74168;SDS011;62523;53.336;83.690;2023-07-31T21:27:55;55.36;;;19.43;;
74168;SDS011;62523;53.336;83.690;2023-07-31T21:32:57;30.48;;;17.80;;
74168;SDS011;62523;53.336;83.690;2023-07-31T21:37:59;41.34;;;17.13;;
74168;SDS011;62523;53.336;83.690;2023-07-31T21:43:00;28.65;;;16.70;;
74168;SDS011;62523;53.336;83.690;2023-07-31T21:48:03;34.45;;;16.38;;
74168;SDS011;62523;53.336;83.690;2023-07-31T21:53:05;30.73;;;16.40;;
74168;SDS011;62523;53.336;83.690;2023-07-31T22:03:08;23.23;;;17.30;;
74168;SDS011;62523;53.336;83.690;2023-07-31T22:08:09;36.00;;;16.40;;
74168;SDS011;62523;53.336;83.690;2023-07-31T22:13:11;52.67;;;18.33;;
74168;SDS011;62523;53.336;83.690;2023-07-31T22:18:13;30.10;;;18.70;;
74168;SDS011;62523;53.336;83.690;2023-07-31T22:23:15;34.33;;;18.10;;
74168;SDS011;62523;53.336;83.690;2023-07-31T22:28:17;26.25;;;17.35;;
74168;SDS011;62523;53.336;83.690;2023-07-31T22:33:18;26.83;;;17.27;;
74168;SDS011;62523;53.336;83.690;2023-07-31T22:38:20;27.08;;;16.83;;
74168;SDS011;62523;53.336;83.690;2023-07-31T22:43:21;33.23;;;18.47;;
74168;SDS011;62523;53.336;83.690;2023-07-31T22:48:23;29.98;;;18.02;;
74168;SDS011;62523;53.336;83.690;2023-07-31T22:53:24;34.43;;;19.47;;
74168;SDS011;62523;53.336;83.690;2023-07-31T22:58:26;31.98;;;15.80;;
74168;SDS011;62523;53.336;83.690;2023-07-31T23:03:27;29.90;;;19.92;;
74168;SDS011;62523;53.336;83.690;2023-07-31T23:08:29;26.87;;;16.70;;
74168;SDS011;62523;53.336;83.690;2023-07-31T23:13:31;26.02;;;16.80;;
74168;SDS011;62523;53.336;83.690;2023-07-31T23:18:34;38.08;;;17.50;;
74168;SDS011;62523;53.336;83.690;2023-07-31T23:23:35;32.30;;;18.63;;
74168;SDS011;62523;53.336;83.690;2023-07-31T23:28:37;46.30;;;20.05;;
74168;SDS011;62523;53.336;83.690;2023-07-31T23:33:38;39.60;;;18.85;;
74168;SDS011;62523;53.336;83.690;2023-07-31T23:38:40;54.22;;;21.15;;
74168;SDS011;62523;53.336;83.690;2023-07-31T23:43:42;42.72;;;20.38;;
74168;SDS011;62523;53.336;83.690;2023-07-31T23:48:44;34.03;;;18.60;;
74168;SDS011;62523;53.336;83.690;2023-07-31T23:53:45;35.43;;;19.13;;
74168;SDS011;62523;53.336;83.690;2023-07-31T23:58:47;34.78;;;21.60;;
